Airlie, Virginia
Current Conditions -  °F | °C
As of 2:35 PM on Saturday 25 Oct 2014 (Local Time) from KHWY Reporting Station
Clear Clear  
Wind Chill: 74°   Ceiling: Unl
Heat Index: 74°   Visibility: 10mi
Dew Point: 47°   Wind: 8mph
Humidity: 38%   Direction: 200°SSW
Pressure: 29.83"   Gusts: NA
Location:  38.6876°N, 77.819°W
Report Text: KHWY 251835Z AUTO 20007KT 180V240 10SM CLR 23/08 A2983 RMK AO2 T02320083
Loading
Personal Weather Stations






























Interactive Weather Map
Tropical Storm Tracking
New forecast layout! Learn more

10-Day Weather Forecast

Advertisements
Track Severe Weather on mobile